Time;durP1;ratioP1;P1;durP2;ratioP2;P2;SDS_P1;SDS_P2;PMS_P1;PMS_P2;Temp;Humidity;BMP_temperature;BMP_pressure;BME280_temperature;BME280_humidity;BME280_pressure;Samples;Min_cycle;Max_cycle;Signal;HPM_P1;HPM_P2
2022/08/25 09:42:52;;;;;;;11.55;10.45;;;31.00;93.10;;;;;;4414117;23;16554526;-66
2022/08/25 09:45:32;;;;;;;10.95;9.93;;;30.20;93.80;;;;;;4944597;29;20039;-65
2022/08/25 09:47:58;;;;;;;9.68;8.85;;;29.80;94.10;;;;;;4946694;29;20027;-64
2022/08/25 09:50:31;;;;;;;10.30;9.30;;;29.60;96.20;;;;;;4947188;29;20119;-65
2022/08/25 09:53:11;;;;;;;9.85;8.90;;;29.50;96.50;;;;;;4931645;29;20133;-65
2022/08/25 09:55:39;;;;;;;10.48;9.40;;;29.70;96.70;;;;;;4947364;29;20030;-66
2022/08/25 09:58:20;;;;;;;9.98;9.07;;;29.60;96.60;;;;;;4958052;29;20043;-66
2022/08/25 10:01:16;;;;;;;11.77;10.60;;;29.50;95.80;;;;;;4952570;29;20090;-64
2022/08/25 10:03:57;;;;;;;10.25;9.35;;;29.50;96.90;;;;;;4951764;29;20393;-65
2022/08/25 10:06:24;;;;;;;10.30;9.40;;;29.30;96.10;;;;;;4956964;29;20071;-64
2022/08/25 10:08:51;;;;;;;12.15;10.95;;;29.30;96.30;;;;;;4956067;29;20102;-66
2022/08/25 10:11:35;;;;;;;11.90;10.77;;;29.00;96.30;;;;;;4956304;29;20027;-66
2022/08/25 10:14:24;;;;;;;12.75;11.50;;;28.90;96.10;;;;;;4949402;29;20044;-68
2022/08/25 10:16:50;;;;;;;13.27;11.98;;;28.70;97.10;;;;;;4936709;29;20047;-72
2022/08/25 10:19:28;;;;;;;13.15;11.85;;;28.70;97.50;;;;;;4943825;29;20090;-68
2022/08/25 10:22:20;;;;;;;13.02;11.73;;;28.70;97.30;;;;;;5469540;23;20050;-72
2022/08/25 10:24:47;;;;;;;12.25;11.13;;;29.00;96.90;;;;;;4976594;28;20038;-64
2022/08/25 10:27:39;;;;;;;12.05;10.90;;;29.40;97.20;;;;;;4977943;28;20030;-71
2022/08/25 10:30:11;;;;;;;12.40;11.10;;;29.80;96.90;;;;;;4987416;28;20034;-69
2022/08/25 10:33:20;;;;;;;12.50;11.30;;;29.90;96.60;;;;;;4987132;28;20033;-65
2022/08/25 10:35:52;;;;;;;13.00;11.25;;;29.90;96.20;;;;;;4986774;28;20396;-68
2022/08/25 10:38:40;;;;;;;13.32;12.02;;;29.80;96.20;;;;;;4983756;28;20077;-66
2022/08/25 10:41:27;;;;;;;13.32;12.02;;;29.90;97.40;;;;;;4981431;28;20331;-69
2022/08/25 10:43:59;;;;;;;13.35;12.05;;;30.60;96.10;;;;;;4980376;28;20034;-65
2022/08/25 10:46:44;;;;;;;12.23;11.13;;;31.10;98.70;;;;;;4974210;28;20025;-71
2022/08/25 10:49:18;;;;;;;16.92;15.13;;;31.70;96.10;;;;;;4973887;28;20014;-64
2022/08/25 10:51:52;;;;;;;14.40;12.98;;;31.60;94.60;;;;;;4973331;28;20031;-67
2022/08/25 10:54:42;;;;;;;14.30;12.90;;;32.00;94.30;;;;;;4973557;28;20023;-70
2022/08/25 10:57:13;;;;;;;15.00;13.52;;;32.40;94.90;;;;;;4972893;28;20023;-71
2022/08/25 11:00:10;;;;;;;15.95;14.07;;;32.20;93.60;;;;;;4956981;28;20077;-67
2022/08/25 11:02:42;;;;;;;15.43;13.95;;;32.20;92.40;;;;;;4975086;28;20023;-68
2022/08/25 11:05:39;;;;;;;14.73;13.43;;;32.50;94.40;;;;;;4975802;28;20030;-70
2022/08/25 11:08:29;;;;;;;15.85;14.45;;;32.70;93.10;;;;;;4986423;28;20026;-67
2022/08/25 11:11:25;;;;;;;14.75;13.45;;;33.00;93.90;;;;;;4992654;28;20117;-65
2022/08/25 11:13:57;;;;;;;16.05;14.65;;;33.20;92.60;;;;;;4993137;28;20019;-66
2022/08/25 11:16:36;;;;;;;15.65;14.15;;;33.60;92.40;;;;;;4992527;28;20026;-69
2022/08/25 11:19:09;;;;;;;16.30;14.75;;;33.60;93.60;;;;;;4993399;28;20042;-68
2022/08/25 11:21:50;;;;;;;14.88;13.43;;;33.10;91.40;;;;;;4992920;28;20033;-68
2022/08/25 11:24:28;;;;;;;14.77;13.27;;;33.30;91.10;;;;;;4993968;28;20057;-71
2022/08/25 11:26:56;;;;;;;16.30;14.15;;;33.60;92.50;;;;;;4992533;28;20177;-74
2022/08/25 11:29:30;;;;;;;15.35;13.95;;;33.70;90.60;;;;;;4975150;28;20039;-71
2022/08/25 11:31:58;;;;;;;14.25;12.98;;;34.00;90.80;;;;;;4975145;28;20042;-69
2022/08/25 11:34:27;;;;;;;14.45;13.05;;;34.00;91.30;;;;;;4991005;28;20033;-72
2022/08/25 11:37:18;;;;;;;14.57;13.27;;;34.10;90.70;;;;;;4993255;28;20535;-69
2022/08/25 11:40:09;;;;;;;14.17;12.87;;;34.30;90.40;;;;;;4993791;28;20066;-71
2022/08/25 11:42:41;;;;;;;12.60;11.32;;;34.50;85.90;;;;;;4993306;28;20023;-69
2022/08/25 11:45:14;;;;;;;;;;;34.60;91.20;;;;;;4994964;28;20030;-72
2022/08/25 11:47:49;;;;;;;;;;;34.70;90.90;;;;;;4994896;28;19988;-74
2022/08/25 11:50:30;;;;;;;14.00;12.48;;;34.50;83.20;;;;;;4993275;28;19925;-75
2022/08/25 11:53:21;;;;;;;14.52;13.23;;;34.10;81.30;;;;;;4994156;28;20380;-74
2022/08/25 11:55:50;;;;;;;14.27;13.02;;;34.00;83.50;;;;;;4994865;28;20033;-72
2022/08/25 11:58:30;;;;;;;15.13;13.80;;;34.10;87.70;;;;;;4995263;28;20023;-75
2022/08/25 12:00:59;;;;;;;13.93;12.57;;;34.30;89.90;;;;;;4995268;28;20044;-71
2022/08/25 12:03:33;;;;;;;14.20;12.80;;;34.50;88.10;;;;;;4995499;28;20022;-65
2022/08/25 12:06:18;;;;;;;14.05;12.75;;;34.60;86.30;;;;;;4995422;28;20054;-71
2022/08/25 12:08:59;;;;;;;13.90;12.70;;;34.60;79.40;;;;;;4995529;28;20025;-70
2022/08/25 12:11:37;;;;;;;14.23;12.93;;;34.70;82.60;;;;;;4995176;28;20109;-70
2022/08/25 12:14:20;;;;;;;14.88;13.52;;;34.90;80.10;;;;;;4995029;28;20113;-69
2022/08/25 12:16:55;;;;;;;13.52;12.23;;;35.30;80.40;;;;;;4995434;28;20018;-71
2022/08/25 12:19:49;;;;;;;14.02;12.55;;;35.60;78.40;;;;;;4995032;28;20041;-72
2022/08/25 12:22:15;;;;;;;14.38;12.68;;;35.40;76.30;;;;;;4994955;28;20412;-70
2022/08/25 12:24:43;;;;;;;14.48;13.05;;;35.20;76.90;;;;;;4995199;28;20022;-74
2022/08/25 12:27:25;;;;;;;14.00;12.68;;;34.80;78.40;;;;;;4995153;28;20022;-72
2022/08/25 12:30:22;;;;;;;15.07;13.53;;;34.30;77.10;;;;;;4994553;28;20026;-68
2022/08/25 12:33:20;;;;;;;14.63;13.13;;;34.30;80.50;;;;;;4959113;28;20274;-69
2022/08/25 12:36:25;;;;;;;13.35;12.05;;;34.70;81.80;;;;;;4993456;28;20026;-70
2022/08/25 12:38:51;;;;;;;14.30;12.90;;;34.80;78.70;;;;;;4993132;28;20061;-67
2022/08/25 12:41:24;;;;;;;13.85;12.38;;;34.40;75.90;;;;;;4994031;28;20209;-73
2022/08/25 12:43:53;;;;;;;13.57;12.18;;;34.00;76.30;;;;;;4994641;28;20101;-69
2022/08/25 12:46:18;;;;;;;12.80;11.63;;;33.80;76.50;;;;;;4994771;28;20026;-71
2022/08/25 12:49:05;;;;;;;11.65;10.65;;;33.80;77.00;;;;;;4994835;28;20019;-75
2022/08/25 12:51:47;;;;;;;12.73;11.52;;;33.60;77.60;;;;;;4977634;28;20041;-70
2022/08/25 12:54:45;;;;;;;12.13;11.13;;;33.50;77.90;;;;;;4994832;28;20018;-69
2022/08/25 12:57:46;;;;;;;11.82;10.75;;;33.50;77.20;;;;;;4994740;28;20124;-70
2022/08/25 13:00:16;;;;;;;12.80;10.63;;;33.50;79.50;;;;;;4977273;28;20129;-72
2022/08/25 13:03:03;;;;;;;12.73;11.30;;;33.50;78.50;;;;;;4993960;28;20030;-65
2022/08/25 13:05:51;;;;;;;13.20;11.90;;;33.60;77.70;;;;;;4994509;28;20105;-72
2022/08/25 13:08:20;;;;;;;12.95;11.77;;;33.50;81.10;;;;;;4983949;28;20034;-74
2022/08/25 13:10:50;;;;;;;12.88;11.75;;;33.40;79.00;;;;;;4994152;28;20030;-70
2022/08/25 13:13:37;;;;;;;12.75;11.55;;;33.20;79.40;;;;;;4994177;28;20023;-66
2022/08/25 13:16:08;;;;;;;11.07;10.00;;;33.10;78.10;;;;;;4994364;28;20030;-67
2022/08/25 13:18:37;;;;;;;10.88;9.63;;;33.10;79.30;;;;;;4994553;28;20034;-74
2022/08/25 13:21:17;;;;;;;12.18;10.48;;;33.40;79.20;;;;;;4994675;28;20061;-68
2022/08/25 13:23:47;;;;;;;11.57;10.48;;;33.80;77.20;;;;;;4994004;28;20133;-75
2022/08/25 13:26:16;;;;;;;12.10;10.88;;;33.90;76.60;;;;;;4977162;28;20027;-74
2022/08/25 13:28:42;;;;;;;11.57;10.48;;;33.90;77.90;;;;;;4994230;28;20062;-68
2022/08/25 13:31:20;;;;;;;10.32;9.32;;;34.10;73.80;;;;;;4994230;28;20392;-69
2022/08/25 13:33:52;;;;;;;9.75;8.85;;;34.40;72.10;;;;;;4994396;28;20030;-70
2022/08/25 13:39:15;;;;;;;9.93;8.93;;;35.10;76.20;;;;;;4994665;28;20084;-73
2022/08/25 13:41:49;;;;;;;11.07;9.88;;;35.20;73.40;;;;;;4994093;28;20050;-75
2022/08/25 13:44:17;;;;;;;10.20;9.13;;;35.20;72.90;;;;;;4994410;28;20058;-73
2022/08/25 13:46:44;;;;;;;11.52;10.27;;;35.00;71.20;;;;;;4994064;28;20531;-67
2022/08/25 13:49:10;;;;;;;10.52;9.05;;;34.80;71.50;;;;;;4994175;28;20022;-74
2022/08/25 13:51:40;;;;;;;12.27;10.65;;;34.70;71.50;;;;;;4994131;28;20030;-68
2022/08/25 13:54:21;;;;;;;10.35;9.35;;;34.30;75.10;;;;;;4994047;28;20023;-69
2022/08/25 13:56:47;;;;;;;13.02;10.23;;;34.20;73.80;;;;;;4994386;28;20026;-70
2022/08/25 13:59:22;;;;;;;11.38;10.27;;;34.10;71.00;;;;;;4994266;28;20040;-71
2022/08/25 14:01:48;;;;;;;10.30;9.27;;;34.20;73.80;;;;;;4994231;28;20034;-71
2022/08/25 14:04:20;;;;;;;10.15;9.15;;;34.40;70.70;;;;;;4994086;28;20114;-71
2022/08/25 14:06:46;;;;;;;9.65;8.68;;;34.40;73.50;;;;;;4994075;28;20058;-71
2022/08/25 14:09:15;;;;;;;11.63;9.07;;;34.50;72.20;;;;;;4994175;28;20034;-73
2022/08/25 14:11:45;;;;;;;10.43;9.07;;;34.70;70.20;;;;;;4976672;28;20064;-70
2022/08/25 14:14:23;;;;;;;10.38;9.38;;;34.50;70.90;;;;;;4993614;28;20066;-74
2022/08/25 14:17:03;;;;;;;9.63;8.63;;;34.30;69.10;;;;;;4980325;28;20034;-72
2022/08/25 14:19:30;;;;;;;10.52;9.57;;;34.20;72.30;;;;;;4980255;28;20101;-73
2022/08/25 14:22:00;;;;;;;9.93;8.85;;;34.30;71.70;;;;;;4997400;28;20041;-72
2022/08/25 14:24:30;;;;;;;10.30;9.27;;;34.50;72.50;;;;;;4997524;28;20034;-72
2022/08/25 14:26:56;;;;;;;10.43;9.38;;;34.60;70.80;;;;;;4997092;28;20018;-73
2022/08/25 14:29:22;;;;;;;11.35;10.18;;;34.40;72.40;;;;;;4979772;28;20552;-65
2022/08/25 14:31:49;;;;;;;10.02;8.68;;;34.40;71.50;;;;;;4997281;28;20040;-74
2022/08/25 14:34:16;;;;;;;10.13;9.13;;;34.50;70.50;;;;;;4979860;28;20184;-75
2022/08/25 14:36:42;;;;;;;11.82;8.65;;;34.60;72.20;;;;;;4997293;28;20114;-72
2022/08/25 14:39:09;;;;;;;9.80;8.88;;;34.80;71.00;;;;;;4979756;28;20101;-74
2022/08/25 14:41:37;;;;;;;9.77;8.85;;;34.80;73.30;;;;;;4997136;28;20033;-73
2022/08/25 14:44:04;;;;;;;9.18;8.38;;;34.90;70.40;;;;;;4979875;28;20022;-71
2022/08/25 14:46:35;;;;;;;9.43;8.63;;;35.00;70.40;;;;;;4997248;28;20033;-71
2022/08/25 14:49:04;;;;;;;9.57;8.57;;;34.90;69.30;;;;;;4996958;28;20085;-69
2022/08/25 14:51:32;;;;;;;11.20;9.32;;;35.00;69.80;;;;;;4996783;28;20030;-70
2022/08/25 14:54:06;;;;;;;10.63;9.23;;;35.00;69.20;;;;;;4996926;28;20133;-75
2022/08/25 14:56:32;;;;;;;9.45;8.65;;;34.90;70.20;;;;;;4996951;28;20504;-74
2022/08/25 14:58:59;;;;;;;10.00;9.00;;;35.00;68.60;;;;;;4996771;28;20511;-75
2022/08/25 15:01:26;;;;;;;9.90;9.05;;;35.10;69.90;;;;;;4996923;28;20056;-74
2022/08/25 15:03:54;;;;;;;9.70;8.80;;;34.90;68.30;;;;;;4996759;28;20026;-66
2022/08/25 15:06:20;;;;;;;9.07;8.18;;;34.80;70.00;;;;;;4979504;28;20077;-74
2022/08/25 15:11:31;;;;;;;9.35;7.82;;;34.70;71.10;;;;;;4996835;28;20061;-71
2022/08/25 15:14:00;;;;;;;8.70;7.65;;;34.80;71.90;;;;;;4996483;28;20022;-71
2022/08/25 15:16:35;;;;;;;7.65;6.95;;;34.80;71.60;;;;;;4996600;28;20444;-72
2022/08/25 15:19:03;;;;;;;7.97;7.13;;;34.80;71.20;;;;;;4979117;28;20030;-68
2022/08/25 15:21:30;;;;;;;7.57;6.88;;;34.80;71.00;;;;;;4996373;28;20469;-72
2022/08/25 15:23:55;;;;;;;7.10;6.43;;;34.70;70.50;;;;;;4996266;28;20459;-72
2022/08/25 15:26:22;;;;;;;8.30;7.22;;;34.50;68.70;;;;;;4978350;28;20023;-74
2022/08/25 15:28:50;;;;;;;8.07;6.75;;;34.50;70.10;;;;;;4996625;28;20025;-71
2022/08/25 15:31:17;;;;;;;7.28;6.63;;;34.40;70.50;;;;;;4996430;28;20026;-73
2022/08/25 15:33:43;;;;;;;8.02;7.32;;;34.40;70.20;;;;;;4996460;28;20495;-73
2022/08/25 15:36:12;;;;;;;7.57;6.88;;;34.20;70.40;;;;;;4996364;28;20023;-74
2022/08/25 15:38:39;;;;;;;7.13;6.55;;;33.90;71.00;;;;;;4996576;28;20023;-72
2022/08/25 15:41:07;;;;;;;7.53;6.72;;;33.90;71.30;;;;;;4996234;28;20078;-70
2022/08/25 15:43:33;;;;;;;7.20;6.50;;;34.00;73.10;;;;;;4995912;28;20480;-72
2022/08/25 15:45:59;;;;;;;6.82;6.22;;;34.00;72.50;;;;;;4978758;28;20030;-70
2022/08/25 15:48:25;;;;;;;7.07;6.10;;;34.00;73.40;;;;;;4978609;28;20037;-67
2022/08/25 15:50:55;;;;;;;6.30;5.70;;;34.00;74.90;;;;;;4978360;28;20046;-73
2022/08/25 15:53:22;;;;;;;6.38;5.78;;;34.00;73.10;;;;;;4996148;28;20420;-72
2022/08/25 15:55:48;;;;;;;6.43;5.93;;;33.80;71.90;;;;;;4995561;28;20053;-70
2022/08/25 15:58:15;;;;;;;6.30;5.70;;;33.80;72.70;;;;;;4995763;28;20019;-70
2022/08/25 16:00:42;;;;;;;6.38;5.70;;;33.70;73.10;;;;;;4995597;28;20033;-70
2022/08/25 16:03:09;;;;;;;5.97;5.50;;;33.70;73.60;;;;;;4995567;28;20101;-65
2022/08/25 16:05:36;;;;;;;6.95;5.63;;;33.60;74.10;;;;;;4995735;28;20029;-70
2022/08/25 16:08:02;;;;;;;5.45;5.05;;;33.50;73.90;;;;;;4995697;28;20408;-69
2022/08/25 16:10:32;;;;;;;6.00;5.50;;;33.50;74.40;;;;;;4995592;28;20030;-66
2022/08/25 16:12:58;;;;;;;6.70;6.13;;;33.50;73.50;;;;;;4995578;28;20029;-66
2022/08/25 16:15:24;;;;;;;5.97;5.38;;;33.70;74.30;;;;;;4995258;28;20018;-76
2022/08/25 16:17:49;;;;;;;6.15;5.57;;;34.00;73.10;;;;;;4995394;28;20073;-67
2022/08/25 16:20:16;;;;;;;6.13;5.40;;;34.00;71.90;;;;;;4995420;28;20385;-73
2022/08/25 16:22:44;;;;;;;5.40;4.88;;;33.90;73.10;;;;;;4995110;28;20070;-68
2022/08/25 16:25:10;;;;;;;5.65;5.15;;;33.60;72.70;;;;;;4977976;28;20076;-67
2022/08/25 16:27:35;;;;;;;6.47;5.15;;;33.30;73.40;;;;;;4995477;28;20029;-70
2022/08/25 16:30:01;;;;;;;5.32;4.82;;;33.20;73.60;;;;;;4995269;28;20047;-74
2022/08/25 16:32:27;;;;;;;4.93;4.43;;;33.10;74.20;;;;;;4978009;28;20030;-71
2022/08/25 16:34:53;;;;;;;5.05;4.65;;;33.00;73.90;;;;;;4995166;28;20022;-74
2022/08/25 16:37:18;;;;;;;6.38;5.03;;;32.80;74.40;;;;;;4994143;28;20515;-69
2022/08/25 16:39:44;;;;;;;5.72;5.22;;;32.50;77.40;;;;;;4995025;28;20054;-67
2022/08/25 16:42:11;;;;;;;6.60;5.93;;;32.30;78.20;;;;;;4994882;28;20024;-75
2022/08/25 16:44:38;;;;;;;6.18;5.57;;;32.10;78.90;;;;;;4995055;28;20025;-72
2022/08/25 16:47:04;;;;;;;9.30;6.55;;;31.80;79.70;;;;;;4978271;28;20026;-69
2022/08/25 16:49:30;;;;;;;5.95;5.35;;;31.50;81.10;;;;;;4977570;28;20447;-73
2022/08/25 16:51:56;;;;;;;6.22;5.63;;;31.10;82.90;;;;;;4994700;28;20121;-75
2022/08/25 16:57:06;;;;;;;7.22;6.00;;;30.80;84.60;;;;;;4994952;28;20033;-67
2022/08/25 16:59:31;;;;;;;7.35;6.63;;;30.60;85.60;;;;;;4994577;28;20023;-73
2022/08/25 17:01:57;;;;;;;7.78;6.80;;;30.30;87.40;;;;;;4994641;28;20026;-72
2022/08/25 17:04:23;;;;;;;10.38;7.28;;;30.00;89.20;;;;;;4994779;28;20026;-73
2022/08/25 17:06:48;;;;;;;10.02;7.53;;;29.70;90.60;;;;;;4977343;28;20110;-65
2022/08/25 17:09:14;;;;;;;8.93;8.02;;;29.30;92.00;;;;;;4994692;28;20472;-72
2022/08/25 17:11:45;;;;;;;12.48;9.43;;;29.00;93.90;;;;;;4994458;28;20027;-73
2022/08/25 17:14:14;;;;;;;8.38;7.57;;;28.60;95.70;;;;;;4994499;28;20023;-73
2022/08/25 17:16:39;;;;;;;13.35;9.80;;;28.40;97.20;;;;;;4994589;28;20047;-73
2022/08/25 17:19:07;;;;;;;11.23;9.00;;;28.10;98.80;;;;;;4994380;28;20031;-69
2022/08/25 17:21:35;;;;;;;10.90;9.15;;;27.80;99.90;;;;;;4994318;28;20554;-75
2022/08/25 17:24:02;;;;;;;11.15;8.20;;;27.50;99.90;;;;;;4994086;28;20247;-67
2022/08/25 17:26:28;;;;;;;10.55;9.52;;;27.30;99.90;;;;;;4994560;28;20019;-75
2022/08/25 17:28:55;;;;;;;9.35;8.38;;;27.00;99.90;;;;;;4994430;28;20022;-73
2022/08/25 17:31:21;;;;;;;14.52;10.00;;;27.00;99.90;;;;;;4994324;28;20077;-73
2022/08/25 17:33:47;;;;;;;15.23;10.32;;;26.90;99.90;;;;;;4994393;28;20023;-75
2022/08/25 17:36:13;;;;;;;14.68;11.60;;;26.80;99.90;;;;;;4994371;28;20030;-68
2022/08/25 17:38:39;;;;;;;16.05;12.65;;;26.60;99.90;;;;;;4994303;28;20118;-69
2022/08/25 17:41:08;;;;;;;16.83;12.25;;;26.60;99.90;;;;;;4994372;28;20027;-75
2022/08/25 17:43:38;;;;;;;12.73;10.77;;;26.40;99.90;;;;;;4976911;28;20030;-75
2022/08/25 17:46:04;;;;;;;12.23;10.88;;;26.30;99.90;;;;;;4994365;28;20018;-73
2022/08/25 17:48:31;;;;;;;12.23;10.45;;;26.20;99.90;;;;;;4994728;28;20105;-74
2022/08/25 17:50:59;;;;;;;11.15;10.00;;;26.00;99.90;;;;;;4997978;28;20045;-68
2022/08/25 17:53:25;;;;;;;13.23;11.00;;;26.00;99.90;;;;;;4980567;28;20049;-70
2022/08/25 17:56:01;;;;;;;10.52;9.30;;;26.00;99.90;;;;;;4980805;28;20081;-64
2022/08/25 17:58:28;;;;;;;12.88;10.02;;;26.00;99.90;;;;;;4980530;28;20049;-69
2022/08/25 18:00:55;;;;;;;13.90;12.45;;;26.10;99.90;;;;;;4997774;28;20026;-70
2022/08/25 18:03:20;;;;;;;11.70;10.60;;;26.00;99.90;;;;;;4997888;28;20072;-75
2022/08/25 18:05:46;;;;;;;11.70;10.13;;;25.90;99.90;;;;;;4997768;28;20050;-70
2022/08/25 18:08:14;;;;;;;11.30;10.20;;;25.80;99.90;;;;;;4997428;28;20061;-70
2022/08/25 18:10:41;;;;;;;12.60;11.40;;;25.60;99.90;;;;;;4997689;28;20464;-70
2022/08/25 18:13:07;;;;;;;15.48;13.55;;;25.40;99.90;;;;;;4997551;28;20042;-70
2022/08/25 18:15:33;;;;;;;14.27;12.70;;;25.30;99.90;;;;;;4997838;28;20034;-67
2022/08/25 18:17:59;;;;;;;18.25;16.35;;;25.20;99.90;;;;;;4980178;28;20031;-72
2022/08/25 18:20:25;;;;;;;15.48;13.98;;;25.20;99.90;;;;;;4980090;28;20081;-69
2022/08/25 18:22:55;;;;;;;20.45;15.73;;;25.20;99.90;;;;;;4997194;28;20081;-70
2022/08/25 18:25:20;;;;;;;15.55;12.80;;;25.10;99.90;;;;;;4997584;28;20030;-72
2022/08/25 18:27:46;;;;;;;18.40;14.88;;;25.30;99.90;;;;;;4997588;28;20029;-67
2022/08/25 18:30:12;;;;;;;20.30;15.68;;;25.30;99.90;;;;;;4997445;28;20438;-70
2022/08/25 18:32:37;;;;;;;17.70;15.35;;;25.50;99.90;;;;;;4979897;28;20030;-77
2022/08/25 18:35:04;;;;;;;17.88;14.95;;;25.50;99.90;;;;;;4997699;28;20026;-72
2022/08/25 18:40:23;;;;;;;14.35;11.98;;;25.10;99.90;;;;;;4997087;28;20034;-69
2022/08/25 18:42:56;;;;;;;13.30;11.90;;;25.10;99.90;;;;;;4997102;28;20030;-71
2022/08/25 18:45:24;;;;;;;13.88;11.27;;;25.10;99.90;;;;;;4997440;28;20031;-70
2022/08/25 18:47:57;;;;;;;12.50;11.25;;;25.00;99.90;;;;;;4997180;28;20018;-65
2022/08/25 18:50:24;;;;;;;12.57;11.37;;;25.00;99.90;;;;;;4997286;28;20373;-74
2022/08/25 18:52:50;;;;;;;11.98;10.85;;;25.00;99.90;;;;;;4997050;28;20387;-69
2022/08/25 18:55:17;;;;;;;9.95;9.05;;;24.90;99.90;;;;;;4996784;28;20022;-66
2022/08/25 18:57:43;;;;;;;8.73;7.93;;;25.00;99.90;;;;;;4996724;28;20022;-68
2022/08/25 19:00:11;;;;;;;8.23;7.53;;;25.20;99.90;;;;;;4995997;28;20050;-65
2022/08/25 19:02:37;;;;;;;10.20;9.23;;;25.30;99.90;;;;;;4996653;28;20038;-68
2022/08/25 19:05:03;;;;;;;11.35;10.20;;;25.40;99.90;;;;;;4996643;28;20026;-70
2022/08/25 19:07:30;;;;;;;9.32;8.40;;;25.30;99.90;;;;;;4979242;28;20045;-69
2022/08/25 19:09:56;;;;;;;8.55;7.68;;;25.20;99.90;;;;;;4996500;28;20026;-78
2022/08/25 19:12:21;;;;;;;7.80;7.07;;;25.30;99.90;;;;;;4979394;28;20041;-75
2022/08/25 19:14:47;;;;;;;7.32;6.55;;;25.40;99.90;;;;;;4996665;28;20388;-71
2022/08/25 19:17:13;;;;;;;6.32;5.82;;;25.50;99.90;;;;;;4996582;28;20572;-68
2022/08/25 19:19:38;;;;;;;6.60;6.00;;;25.50;99.90;;;;;;4996498;28;20101;-73
2022/08/25 19:22:04;;;;;;;6.00;5.50;;;25.60;99.90;;;;;;4996222;28;20476;-65
2022/08/25 19:24:30;;;;;;;7.68;6.90;;;25.50;99.90;;;;;;4996695;28;20050;-68
2022/08/25 19:27:01;;;;;;;8.13;7.10;;;25.60;99.90;;;;;;4996239;28;20061;-71
2022/08/25 19:29:27;;;;;;;8.30;7.50;;;25.50;99.90;;;;;;4996439;28;20023;-68
2022/08/25 19:31:53;;;;;;;9.15;8.30;;;25.40;99.90;;;;;;4996336;28;20114;-67
2022/08/25 19:34:27;;;;;;;8.90;7.90;;;25.30;99.90;;;;;;4978727;28;20022;-75
2022/08/25 19:36:53;;;;;;;8.73;7.80;;;25.30;99.90;;;;;;4978816;28;20057;-68
2022/08/25 19:39:20;;;;;;;8.13;6.90;;;25.20;99.90;;;;;;4996052;28;20389;-68
2022/08/25 19:41:46;;;;;;;8.65;7.82;;;25.10;99.90;;;;;;4996342;28;20045;-70
2022/08/25 19:44:14;;;;;;;8.00;7.20;;;24.90;99.90;;;;;;4996079;28;20026;-74
2022/08/25 19:46:43;;;;;;;7.68;6.97;;;24.70;99.90;;;;;;4996042;28;20030;-72
2022/08/25 19:49:14;;;;;;;7.07;6.47;;;24.70;99.90;;;;;;4995943;28;20058;-66
2022/08/25 19:51:47;;;;;;;7.43;6.82;;;24.80;99.90;;;;;;4978747;28;20030;-70
2022/08/25 19:54:15;;;;;;;8.27;7.47;;;24.80;99.90;;;;;;4978479;28;20534;-71
2022/08/25 19:56:42;;;;;;;11.20;8.10;;;24.70;99.90;;;;;;4978348;28;20117;-71
2022/08/25 19:59:08;;;;;;;7.25;6.65;;;24.60;99.90;;;;;;4978593;28;20503;-75
2022/08/25 20:01:35;;;;;;;6.43;5.90;;;24.50;99.90;;;;;;4995703;28;20038;-72
2022/08/25 20:04:02;;;;;;;5.97;5.45;;;24.50;99.90;;;;;;4995412;28;20061;-70
2022/08/25 20:06:30;;;;;;;5.80;5.30;;;24.60;99.90;;;;;;4995489;28;20027;-71
2022/08/25 20:08:57;;;;;;;5.25;4.85;;;24.70;99.90;;;;;;4978221;28;20121;-69
2022/08/25 20:11:24;;;;;;;5.90;5.25;;;24.70;99.90;;;;;;4977661;28;20432;-67
2022/08/25 20:13:51;;;;;;;6.72;5.65;;;24.80;99.90;;;;;;4994767;28;20034;-73
2022/08/25 20:16:16;;;;;;;7.00;6.30;;;24.80;99.90;;;;;;4995325;28;20104;-72
2022/08/25 20:18:42;;;;;;;6.70;5.60;;;24.60;99.90;;;;;;4978084;28;20108;-72
2022/08/25 20:21:08;;;;;;;6.40;5.90;;;24.60;99.90;;;;;;4995316;28;20029;-70
2022/08/25 20:26:17;;;;;;;7.78;7.07;;;24.70;99.90;;;;;;4995401;28;20038;-73
2022/08/25 20:28:43;;;;;;;8.55;7.57;;;24.60;99.90;;;;;;4995022;28;20385;-74
2022/08/25 20:31:09;;;;;;;6.60;6.03;;;24.30;99.90;;;;;;4994902;28;20037;-70
2022/08/25 20:33:34;;;;;;;6.50;5.80;;;24.20;99.90;;;;;;4994879;28;20487;-76
2022/08/25 20:36:01;;;;;;;7.55;6.80;;;24.30;99.90;;;;;;4977520;28;20366;-68
2022/08/25 20:38:29;;;;;;;6.57;6.00;;;24.20;99.90;;;;;;4994997;28;20098;-75
2022/08/25 20:40:55;;;;;;;7.68;6.72;;;24.20;99.90;;;;;;4995002;28;20042;-72
2022/08/25 20:43:21;;;;;;;6.05;5.55;;;24.20;99.90;;;;;;4994869;28;20065;-68
2022/08/25 20:45:47;;;;;;;6.05;5.45;;;24.20;99.90;;;;;;4994770;28;20025;-67
2022/08/25 20:48:12;;;;;;;5.60;5.03;;;24.20;99.90;;;;;;4994679;28;20026;-65
2022/08/25 20:50:38;;;;;;;6.00;5.32;;;24.20;99.90;;;;;;4994979;28;20114;-68
2022/08/25 20:53:04;;;;;;;5.30;4.88;;;24.30;99.90;;;;;;4994970;28;20018;-70
2022/08/25 20:55:30;;;;;;;4.65;4.25;;;24.30;99.90;;;;;;4994944;28;20026;-68
2022/08/25 20:57:57;;;;;;;5.30;4.80;;;24.30;99.90;;;;;;4994861;28;20473;-70
2022/08/25 21:00:23;;;;;;;4.97;4.57;;;24.30;99.90;;;;;;4994489;28;20084;-70
2022/08/25 21:02:49;;;;;;;5.38;4.88;;;24.30;99.90;;;;;;4994883;28;20101;-75
2022/08/25 21:05:16;;;;;;;5.82;5.20;;;24.20;99.90;;;;;;4994660;28;20477;-68
2022/08/25 21:07:42;;;;;;;5.40;4.93;;;24.20;99.90;;;;;;4994898;28;20030;-72
2022/08/25 21:10:10;;;;;;;6.60;5.82;;;24.20;99.90;;;;;;4994527;28;20069;-71
2022/08/25 21:12:36;;;;;;;5.78;5.35;;;24.10;99.90;;;;;;4994825;28;20447;-79
2022/08/25 21:15:02;;;;;;;5.78;5.28;;;24.10;99.90;;;;;;4994498;28;20049;-69
2022/08/25 21:17:28;;;;;;;5.60;5.20;;;24.10;99.90;;;;;;4994293;28;20113;-71
2022/08/25 21:19:54;;;;;;;4.53;4.22;;;24.10;99.90;;;;;;4977216;28;20054;-71
2022/08/25 21:22:20;;;;;;;5.30;4.85;;;24.00;99.90;;;;;;4994091;28;20052;-67
2022/08/25 21:24:46;;;;;;;5.28;4.78;;;24.00;99.90;;;;;;4993963;28;20023;-73
2022/08/25 21:27:11;;;;;;;5.70;5.20;;;24.10;99.90;;;;;;4994642;28;20026;-74
2022/08/25 21:29:37;;;;;;;6.15;5.65;;;24.00;99.90;;;;;;4994474;28;20026;-70
2022/08/25 21:32:03;;;;;;;5.72;5.28;;;23.90;99.90;;;;;;4994083;28;20042;-70
2022/08/25 21:34:29;;;;;;;5.85;5.25;;;23.80;99.90;;;;;;4994299;28;20029;-69
2022/08/25 21:36:56;;;;;;;4.80;4.40;;;23.80;99.90;;;;;;4994310;28;20022;-66
2022/08/25 21:39:23;;;;;;;5.60;5.10;;;23.80;99.90;;;;;;4994459;28;20029;-67
2022/08/25 21:41:49;;;;;;;5.85;5.35;;;23.80;99.90;;;;;;4994528;28;20038;-70
2022/08/25 21:44:15;;;;;;;5.28;4.78;;;23.80;99.90;;;;;;4994464;28;20496;-72
2022/08/25 21:46:40;;;;;;;4.65;4.25;;;23.80;99.90;;;;;;4994117;28;20049;-73
2022/08/25 21:49:07;;;;;;;4.97;4.57;;;23.80;99.90;;;;;;4994296;28;20026;-72
2022/08/25 21:51:39;;;;;;;5.05;4.53;;;23.70;99.90;;;;;;4994220;28;20428;-70
2022/08/25 21:54:10;;;;;;;5.43;4.93;;;23.70;99.90;;;;;;4994192;28;20018;-71
2022/08/25 21:57:00;;;;;;;4.35;3.90;;;23.70;99.90;;;;;;4994412;28;20018;-72
2022/08/25 21:59:39;;;;;;;4.53;3.97;;;23.60;99.90;;;;;;4993937;28;20026;-64
2022/08/25 22:02:08;;;;;;;5.10;4.60;;;23.60;99.90;;;;;;4994230;28;20031;-69
2022/08/25 22:04:35;;;;;;;4.93;4.53;;;23.60;99.90;;;;;;4994256;28;20516;-66
2022/08/25 22:07:01;;;;;;;5.00;4.60;;;23.50;99.90;;;;;;4976814;28;20030;-70
2022/08/25 22:09:27;;;;;;;5.10;4.60;;;23.50;99.90;;;;;;4994099;28;20031;-70
2022/08/25 22:11:54;;;;;;;3.65;3.35;;;23.50;99.90;;;;;;4994112;28;20026;-69
2022/08/25 22:14:20;;;;;;;4.32;4.03;;;23.50;99.90;;;;;;4976920;28;20403;-68
2022/08/25 22:16:46;;;;;;;4.60;4.20;;;23.50;99.90;;;;;;4994040;28;20030;-71
2022/08/25 22:19:13;;;;;;;5.00;3.92;;;23.50;99.90;;;;;;4994243;28;20543;-68
2022/08/25 22:21:40;;;;;;;4.60;4.20;;;23.50;99.90;;;;;;4993423;28;20491;-69
2022/08/25 22:24:06;;;;;;;4.78;4.28;;;23.50;99.90;;;;;;4976707;28;20440;-65
2022/08/25 22:26:33;;;;;;;4.85;4.28;;;23.50;99.90;;;;;;4993951;28;20026;-70
2022/08/25 22:28:59;;;;;;;4.43;4.13;;;23.40;99.90;;;;;;4993661;28;20592;-70
2022/08/25 22:31:26;;;;;;;4.38;3.97;;;23.40;99.90;;;;;;4993954;28;20066;-73
2022/08/25 22:33:52;;;;;;;5.32;4.82;;;23.40;99.90;;;;;;4976402;28;20037;-72
2022/08/25 22:36:30;;;;;;;5.53;5.13;;;23.40;99.90;;;;;;4995397;28;20085;-69
2022/08/25 22:38:57;;;;;;;5.35;4.80;;;23.30;99.90;;;;;;4997355;28;20093;-73
2022/08/25 22:41:25;;;;;;;6.53;4.88;;;23.30;99.90;;;;;;4997313;28;20022;-73
2022/08/25 22:43:51;;;;;;;4.88;4.47;;;23.30;99.90;;;;;;4996918;28;20101;-70
2022/08/25 22:46:18;;;;;;;5.72;4.60;;;23.20;99.90;;;;;;4996987;28;20022;-67
2022/08/25 22:48:44;;;;;;;5.50;5.00;;;23.20;99.90;;;;;;4997221;28;20026;-72
2022/08/25 22:51:15;;;;;;;5.13;4.68;;;23.10;99.90;;;;;;4997167;28;20027;-72